Aérodrome :
LOGIN :

S'inscrire | Disclaimer

   EN    FR    IT 

 










Légende :    VFR   VFR Marginal   IFR   IFR Intensif   IFR Très Intensif
Visi : 
Plafond : 
>= 8 km
>= 3000ft
5 à 8 km
1000 à 3000 ft
1500m à 5 km
500 à 1000 ft
800 à 1500m
200 à 500 ft
< 800m
< 200 ft
Symboles :   Orages  Brouillard  Fortes neiges  Fortes précipitations  Vent > 20 kt
SIGMETs :   Divers  Orages  Givrage  Turbulence  Onde Orograph.  Cendres Volcan.






- Altitude de l'aérodrome : 1649 ft
- Code IATA : HHN


EDFH - Frankfurt-Hahn Rhineland-Palatinate

DERNIER METAR :
  • 200650Z 21015KT CAVOK 03/M01 Q1005

METARs EXPIRÉS :
  • 200620Z 21013KT CAVOK 04/M02 Q1005
  • 200550Z 22014KT CAVOK 04/M02 Q1005
  • 200520Z 24013KT CAVOK 03/M02 Q1005
  • 200450Z 23015KT 200V260 CAVOK 03/M02 Q1005
  • 200420Z 23015G25KT CAVOK 03/M02 Q1005

TAF TAF EDFH
Valide du 20 à 06h jusqu'au 21 à 06h UTC


200500Z 2006/2106 23015G25KT CAVOK
TEMPO 2009/2019 23020G35KT
BECMG 2019/2021 20020G35KT
TEMPO 2021/2106 20025G45KT



MET'MAP, la Météo Aéronautique d'un coup d'oeil ! - Copyright ORBIFLY Décembre 2007 - Disclaimer

ORBIFLY MET'MAP TEAM :

Programmation & Développement : Alexandra Zaïnal
Sur une idée originale de : Baudouin d'Aumeries
Assistance à la programmation : Marc-Olivier Méhu
Soutien technique & logistique : Manuel Goepfert

Contact : metmap@orbifly.com




SOURCES & CREDITS :

   NOAA